sensor_id;sensor_type;location;lat;lon;timestamp;pressure;altitude;pressure_sealevel;temperature;humidity
65190;BME280;51777;53.570;9.984;2024-03-17T00:01:32;101964.03;;;5.25;100.00
65190;BME280;51777;53.570;9.984;2024-03-17T00:03:57;101965.69;;;5.26;100.00
65190;BME280;51777;53.570;9.984;2024-03-17T00:06:24;101968.06;;;5.29;100.00
65190;BME280;51777;53.570;9.984;2024-03-17T00:08:49;101972.53;;;5.25;100.00
65190;BME280;51777;53.570;9.984;2024-03-17T00:11:15;101976.19;;;5.21;100.00
65190;BME280;51777;53.570;9.984;2024-03-17T00:13:41;101975.41;;;5.19;100.00
65190;BME280;51777;53.570;9.984;2024-03-17T00:16:06;101982.84;;;5.08;100.00
65190;BME280;51777;53.570;9.984;2024-03-17T00:18:32;101978.03;;;5.02;100.00
65190;BME280;51777;53.570;9.984;2024-03-17T00:20:57;101984.06;;;5.01;100.00
65190;BME280;51777;53.570;9.984;2024-03-17T00:23:24;101987.47;;;5.01;100.00
65190;BME280;51777;53.570;9.984;2024-03-17T00:25:49;101992.06;;;4.95;100.00
65190;BME280;51777;53.570;9.984;2024-03-17T00:28:16;101988.91;;;4.90;100.00
65190;BME280;51777;53.570;9.984;2024-03-17T00:30:45;101984.38;;;4.95;100.00
65190;BME280;51777;53.570;9.984;2024-03-17T00:33:11;101993.22;;;4.89;100.00
65190;BME280;51777;53.570;9.984;2024-03-17T00:35:36;101998.25;;;4.91;100.00
65190;BME280;51777;53.570;9.984;2024-03-17T00:38:02;101999.00;;;4.93;100.00
65190;BME280;51777;53.570;9.984;2024-03-17T00:40:35;101990.41;;;4.94;100.00
65190;BME280;51777;53.570;9.984;2024-03-17T00:43:00;101999.75;;;4.95;100.00
65190;BME280;51777;53.570;9.984;2024-03-17T00:45:26;101995.16;;;5.01;100.00
65190;BME280;51777;53.570;9.984;2024-03-17T00:47:51;102001.03;;;5.04;100.00
65190;BME280;51777;53.570;9.984;2024-03-17T00:50:17;102002.38;;;5.11;100.00
65190;BME280;51777;53.570;9.984;2024-03-17T00:52:42;102014.66;;;5.04;100.00
65190;BME280;51777;53.570;9.984;2024-03-17T00:55:07;102010.44;;;5.03;100.00
65190;BME280;51777;53.570;9.984;2024-03-17T00:57:35;102012.84;;;5.06;100.00
65190;BME280;51777;53.570;9.984;2024-03-17T01:00:00;101999.38;;;5.03;100.00
65190;BME280;51777;53.570;9.984;2024-03-17T01:02:26;102004.13;;;5.10;100.00
65190;BME280;51777;53.570;9.984;2024-03-17T01:04:51;102008.81;;;5.18;100.00
65190;BME280;51777;53.570;9.984;2024-03-17T01:07:17;102014.41;;;5.26;100.00
65190;BME280;51777;53.570;9.984;2024-03-17T01:09:42;102017.63;;;5.29;100.00
65190;BME280;51777;53.570;9.984;2024-03-17T01:12:07;102014.97;;;5.31;100.00
65190;BME280;51777;53.570;9.984;2024-03-17T01:14:33;102013.56;;;5.25;100.00
65190;BME280;51777;53.570;9.984;2024-03-17T01:17:00;102007.53;;;5.26;100.00
65190;BME280;51777;53.570;9.984;2024-03-17T01:19:26;102007.19;;;5.32;100.00
65190;BME280;51777;53.570;9.984;2024-03-17T01:21:52;102009.38;;;5.40;100.00
65190;BME280;51777;53.570;9.984;2024-03-17T01:24:17;102019.97;;;5.50;100.00
65190;BME280;51777;53.570;9.984;2024-03-17T01:26:43;102018.91;;;5.54;100.00
65190;BME280;51777;53.570;9.984;2024-03-17T01:29:08;102025.84;;;5.52;100.00
65190;BME280;51777;53.570;9.984;2024-03-17T01:31:34;102016.69;;;5.48;100.00
65190;BME280;51777;53.570;9.984;2024-03-17T01:33:59;102021.88;;;5.46;100.00
65190;BME280;51777;53.570;9.984;2024-03-17T01:36:25;102009.72;;;5.50;100.00
65190;BME280;51777;53.570;9.984;2024-03-17T01:38:50;102022.53;;;5.50;100.00
65190;BME280;51777;53.570;9.984;2024-03-17T01:41:16;102016.81;;;5.45;100.00
65190;BME280;51777;53.570;9.984;2024-03-17T01:43:41;102016.97;;;5.42;100.00
65190;BME280;51777;53.570;9.984;2024-03-17T01:46:11;102014.75;;;5.36;100.00
65190;BME280;51777;53.570;9.984;2024-03-17T01:48:39;102018.44;;;5.30;100.00
65190;BME280;51777;53.570;9.984;2024-03-17T01:51:04;102016.78;;;5.29;100.00
65190;BME280;51777;53.570;9.984;2024-03-17T01:53:30;102011.66;;;5.29;100.00
65190;BME280;51777;53.570;9.984;2024-03-17T01:55:57;102021.09;;;5.28;100.00
65190;BME280;51777;53.570;9.984;2024-03-17T01:58:27;102013.75;;;5.22;100.00
65190;BME280;51777;53.570;9.984;2024-03-17T02:00:55;102020.53;;;5.23;100.00
65190;BME280;51777;53.570;9.984;2024-03-17T02:03:21;102013.75;;;5.22;100.00
65190;BME280;51777;53.570;9.984;2024-03-17T02:05:47;102019.09;;;5.18;100.00
65190;BME280;51777;53.570;9.984;2024-03-17T02:08:13;102018.78;;;5.24;100.00
65190;BME280;51777;53.570;9.984;2024-03-17T02:10:38;102013.50;;;5.27;100.00
65190;BME280;51777;53.570;9.984;2024-03-17T02:13:04;102020.19;;;5.29;100.00
65190;BME280;51777;53.570;9.984;2024-03-17T02:15:30;102020.78;;;5.35;100.00
65190;BME280;51777;53.570;9.984;2024-03-17T02:17:56;102019.34;;;5.29;100.00
65190;BME280;51777;53.570;9.984;2024-03-17T02:20:22;102018.63;;;5.27;100.00
65190;BME280;51777;53.570;9.984;2024-03-17T02:23:10;102016.97;;;5.26;100.00
65190;BME280;51777;53.570;9.984;2024-03-17T02:25:35;102019.44;;;5.27;100.00
65190;BME280;51777;53.570;9.984;2024-03-17T02:28:01;102020.28;;;5.28;100.00
65190;BME280;51777;53.570;9.984;2024-03-17T02:30:26;102021.09;;;5.28;100.00
65190;BME280;51777;53.570;9.984;2024-03-17T02:32:53;102015.41;;;5.23;100.00
65190;BME280;51777;53.570;9.984;2024-03-17T02:35:18;102023.09;;;5.23;100.00
65190;BME280;51777;53.570;9.984;2024-03-17T02:37:44;102018.25;;;5.17;100.00
65190;BME280;51777;53.570;9.984;2024-03-17T02:40:09;102023.38;;;5.17;100.00
65190;BME280;51777;53.570;9.984;2024-03-17T02:42:35;102027.19;;;5.10;100.00
65190;BME280;51777;53.570;9.984;2024-03-17T02:45:04;102032.31;;;4.93;100.00
65190;BME280;51777;53.570;9.984;2024-03-17T02:47:29;102022.16;;;4.91;100.00
65190;BME280;51777;53.570;9.984;2024-03-17T02:49:55;102023.06;;;4.90;100.00
65190;BME280;51777;53.570;9.984;2024-03-17T02:52:20;102020.75;;;4.86;100.00
65190;BME280;51777;53.570;9.984;2024-03-17T02:54:46;102024.34;;;4.82;100.00
65190;BME280;51777;53.570;9.984;2024-03-17T02:57:11;102027.81;;;4.81;100.00
65190;BME280;51777;53.570;9.984;2024-03-17T02:59:37;102027.06;;;4.79;100.00
65190;BME280;51777;53.570;9.984;2024-03-17T03:02:02;102021.94;;;4.79;100.00
65190;BME280;51777;53.570;9.984;2024-03-17T03:04:28;102028.88;;;4.77;100.00
65190;BME280;51777;53.570;9.984;2024-03-17T03:06:53;102026.31;;;4.77;100.00
65190;BME280;51777;53.570;9.984;2024-03-17T03:09:19;102028.97;;;4.75;100.00
65190;BME280;51777;53.570;9.984;2024-03-17T03:11:52;102024.81;;;4.72;100.00
65190;BME280;51777;53.570;9.984;2024-03-17T03:14:17;102024.00;;;4.72;100.00
65190;BME280;51777;53.570;9.984;2024-03-17T03:16:43;102028.81;;;4.61;100.00
65190;BME280;51777;53.570;9.984;2024-03-17T03:19:09;102019.47;;;4.60;100.00
65190;BME280;51777;53.570;9.984;2024-03-17T03:21:40;102019.47;;;4.60;100.00
65190;BME280;51777;53.570;9.984;2024-03-17T03:24:05;102022.09;;;4.58;100.00
65190;BME280;51777;53.570;9.984;2024-03-17T03:26:31;102023.81;;;4.58;100.00
65190;BME280;51777;53.570;9.984;2024-03-17T03:28:56;102017.94;;;4.56;100.00
65190;BME280;51777;53.570;9.984;2024-03-17T03:31:22;102023.16;;;4.54;100.00
65190;BME280;51777;53.570;9.984;2024-03-17T03:33:47;102022.41;;;4.52;100.00
65190;BME280;51777;53.570;9.984;2024-03-17T03:36:15;102022.41;;;4.52;100.00
65190;BME280;51777;53.570;9.984;2024-03-17T03:38:41;102024.13;;;4.52;100.00
65190;BME280;51777;53.570;9.984;2024-03-17T03:41:12;102030.25;;;4.49;100.00
65190;BME280;51777;53.570;9.984;2024-03-17T03:43:38;102044.06;;;4.45;100.00
65190;BME280;51777;53.570;9.984;2024-03-17T03:46:04;102041.47;;;4.47;100.00
65190;BME280;51777;53.570;9.984;2024-03-17T03:48:30;102040.16;;;4.38;100.00
65190;BME280;51777;53.570;9.984;2024-03-17T03:50:55;102033.31;;;4.38;100.00
65190;BME280;51777;53.570;9.984;2024-03-17T03:53:21;102033.31;;;4.38;100.00
65190;BME280;51777;53.570;9.984;2024-03-17T03:55:46;102031.75;;;4.36;100.00
65190;BME280;51777;53.570;9.984;2024-03-17T03:58:12;102034.28;;;4.36;100.00
65190;BME280;51777;53.570;9.984;2024-03-17T04:00:38;102025.72;;;4.37;100.00
65190;BME280;51777;53.570;9.984;2024-03-17T04:03:04;102025.63;;;4.38;100.00
65190;BME280;51777;53.570;9.984;2024-03-17T04:05:30;102025.56;;;4.40;100.00
65190;BME280;51777;53.570;9.984;2024-03-17T04:07:56;102028.78;;;4.43;100.00
65190;BME280;51777;53.570;9.984;2024-03-17T04:10:22;102026.78;;;4.50;100.00
65190;BME280;51777;53.570;9.984;2024-03-17T04:12:49;102034.84;;;4.60;100.00
65190;BME280;51777;53.570;9.984;2024-03-17T04:15:14;102030.31;;;4.65;100.00
65190;BME280;51777;53.570;9.984;2024-03-17T04:17:40;102037.75;;;4.69;100.00
65190;BME280;51777;53.570;9.984;2024-03-17T04:20:06;102030.84;;;4.71;100.00
65190;BME280;51777;53.570;9.984;2024-03-17T04:22:34;102033.41;;;4.71;100.00
65190;BME280;51777;53.570;9.984;2024-03-17T04:25:00;102042.69;;;4.74;100.00
65190;BME280;51777;53.570;9.984;2024-03-17T04:27:26;102046.66;;;4.80;100.00
65190;BME280;51777;53.570;9.984;2024-03-17T04:29:53;102050.75;;;4.84;100.00
65190;BME280;51777;53.570;9.984;2024-03-17T04:32:19;102053.31;;;4.84;100.00
65190;BME280;51777;53.570;9.984;2024-03-17T04:34:44;102045.75;;;4.81;100.00
65190;BME280;51777;53.570;9.984;2024-03-17T04:37:10;102054.19;;;4.83;100.00
65190;BME280;51777;53.570;9.984;2024-03-17T04:39:38;102054.81;;;4.88;100.00
65190;BME280;51777;53.570;9.984;2024-03-17T04:42:04;102050.59;;;4.87;100.00
65190;BME280;51777;53.570;9.984;2024-03-17T04:44:29;102052.69;;;4.79;100.00
65190;BME280;51777;53.570;9.984;2024-03-17T04:46:55;102047.41;;;4.82;100.00
65190;BME280;51777;53.570;9.984;2024-03-17T04:49:20;102044.72;;;4.85;100.00
65190;BME280;51777;53.570;9.984;2024-03-17T04:51:45;102047.03;;;4.89;100.00
65190;BME280;51777;53.570;9.984;2024-03-17T04:54:11;102048.59;;;4.92;100.00
65190;BME280;51777;53.570;9.984;2024-03-17T04:56:36;102054.56;;;4.92;100.00
65190;BME280;51777;53.570;9.984;2024-03-17T04:59:02;102061.41;;;4.92;100.00
65190;BME280;51777;53.570;9.984;2024-03-17T05:01:27;102059.47;;;4.97;100.00
65190;BME280;51777;53.570;9.984;2024-03-17T05:03:53;102063.41;;;4.87;100.00
65190;BME280;51777;53.570;9.984;2024-03-17T05:06:18;102060.53;;;4.76;100.00
65190;BME280;51777;53.570;9.984;2024-03-17T05:08:44;102055.38;;;4.58;100.00
65190;BME280;51777;53.570;9.984;2024-03-17T05:11:09;102063.16;;;4.57;100.00
65190;BME280;51777;53.570;9.984;2024-03-17T05:13:36;102070.00;;;4.56;100.00
65190;BME280;51777;53.570;9.984;2024-03-17T05:16:05;102061.50;;;4.56;100.00
65190;BME280;51777;53.570;9.984;2024-03-17T05:18:30;102068.25;;;4.57;100.00
65190;BME280;51777;53.570;9.984;2024-03-17T05:21:05;102069.25;;;4.54;100.00
65190;BME280;51777;53.570;9.984;2024-03-17T05:23:36;102073.47;;;4.55;100.00
65190;BME280;51777;53.570;9.984;2024-03-17T05:26:05;102088.75;;;4.57;100.00
65190;BME280;51777;53.570;9.984;2024-03-17T05:28:31;102078.75;;;4.52;100.00
65190;BME280;51777;53.570;9.984;2024-03-17T05:30:56;102088.69;;;4.58;100.00
65190;BME280;51777;53.570;9.984;2024-03-17T05:33:23;102086.13;;;4.58;100.00
65190;BME280;51777;53.570;9.984;2024-03-17T05:35:50;102096.44;;;4.57;100.00
65190;BME280;51777;53.570;9.984;2024-03-17T05:38:18;102082.97;;;4.53;100.00
65190;BME280;51777;53.570;9.984;2024-03-17T05:40:44;102091.47;;;4.54;100.00
65190;BME280;51777;53.570;9.984;2024-03-17T05:43:10;102091.56;;;4.52;100.00
65190;BME280;51777;53.570;9.984;2024-03-17T05:45:35;102087.19;;;4.54;100.00
65190;BME280;51777;53.570;9.984;2024-03-17T05:48:01;102093.34;;;4.50;100.00
65190;BME280;51777;53.570;9.984;2024-03-17T05:50:30;102093.56;;;4.46;100.00
65190;BME280;51777;53.570;9.984;2024-03-17T05:52:55;102098.47;;;4.50;100.00
65190;BME280;51777;53.570;9.984;2024-03-17T05:55:21;102094.88;;;4.54;100.00
65190;BME280;51777;53.570;9.984;2024-03-17T05:57:47;102095.53;;;4.58;100.00
65190;BME280;51777;53.570;9.984;2024-03-17T06:00:12;102093.69;;;4.61;100.00
65190;BME280;51777;53.570;9.984;2024-03-17T06:02:40;102102.19;;;4.62;100.00
65190;BME280;51777;53.570;9.984;2024-03-17T06:05:05;102101.28;;;4.63;100.00
65190;BME280;51777;53.570;9.984;2024-03-17T06:07:35;102103.69;;;4.66;100.00
65190;BME280;51777;53.570;9.984;2024-03-17T06:10:00;102106.84;;;4.71;100.00
65190;BME280;51777;53.570;9.984;2024-03-17T06:12:26;102112.53;;;4.78;100.00
65190;BME280;51777;53.570;9.984;2024-03-17T06:14:51;102111.78;;;4.76;100.00
65190;BME280;51777;53.570;9.984;2024-03-17T06:17:16;102109.72;;;4.82;100.00
65190;BME280;51777;53.570;9.984;2024-03-17T06:19:42;102116.22;;;4.89;100.00
65190;BME280;51777;53.570;9.984;2024-03-17T06:22:08;102113.28;;;4.97;100.00
65190;BME280;51777;53.570;9.984;2024-03-17T06:24:34;102111.31;;;5.02;100.00
65190;BME280;51777;53.570;9.984;2024-03-17T06:26:59;102110.19;;;5.08;100.00
65190;BME280;51777;53.570;9.984;2024-03-17T06:29:24;102105.50;;;5.16;100.00
65190;BME280;51777;53.570;9.984;2024-03-17T06:31:50;102112.09;;;5.21;100.00
65190;BME280;51777;53.570;9.984;2024-03-17T06:34:15;102121.19;;;5.27;100.00
65190;BME280;51777;53.570;9.984;2024-03-17T06:36:41;102121.94;;;5.29;100.00
65190;BME280;51777;53.570;9.984;2024-03-17T06:39:07;102112.13;;;5.37;100.00
65190;BME280;51777;53.570;9.984;2024-03-17T06:41:33;102121.41;;;5.40;100.00
65190;BME280;51777;53.570;9.984;2024-03-17T06:43:58;102122.59;;;5.50;100.00
65190;BME280;51777;53.570;9.984;2024-03-17T06:46:24;102122.13;;;5.59;100.00
65190;BME280;51777;53.570;9.984;2024-03-17T06:48:49;102125.09;;;5.67;100.00
65190;BME280;51777;53.570;9.984;2024-03-17T06:51:16;102117.19;;;5.72;100.00
65190;BME280;51777;53.570;9.984;2024-03-17T06:53:42;102130.66;;;5.75;100.00
65190;BME280;51777;53.570;9.984;2024-03-17T06:56:07;102125.81;;;5.86;100.00
65190;BME280;51777;53.570;9.984;2024-03-17T06:58:33;102129.63;;;5.95;100.00
65190;BME280;51777;53.570;9.984;2024-03-17T07:00:59;102137.94;;;6.00;100.00
65190;BME280;51777;53.570;9.984;2024-03-17T07:03:27;102133.53;;;6.18;100.00
65190;BME280;51777;53.570;9.984;2024-03-17T07:05:59;102145.88;;;6.43;100.00
65190;BME280;51777;53.570;9.984;2024-03-17T07:08:27;102156.31;;;10.36;100.00
65190;BME280;51777;53.570;9.984;2024-03-17T07:13:24;102200.09;;;17.02;70.05
65190;BME280;51777;53.570;9.984;2024-03-17T07:15:50;102217.41;;;18.98;66.93
65190;BME280;51777;53.570;9.984;2024-03-17T07:18:15;102222.94;;;19.28;70.67
65190;BME280;51777;53.570;9.984;2024-03-17T07:20:41;102224.69;;;21.74;85.40
65190;BME280;51777;53.570;9.984;2024-03-17T07:23:07;102230.47;;;22.78;89.60
65190;BME280;51777;53.570;9.984;2024-03-17T07:25:32;102246.19;;;24.18;92.12
65190;BME280;51777;53.570;9.984;2024-03-17T07:27:57;102247.44;;;22.69;90.27
65190;BME280;51777;53.570;9.984;2024-03-17T07:30:22;102238.78;;;24.54;94.77
65190;BME280;51777;53.570;9.984;2024-03-17T07:32:48;102247.97;;;24.85;92.24
65190;BME280;51777;53.570;9.984;2024-03-17T07:35:13;102245.44;;;26.21;91.01
65190;BME280;51777;53.570;9.984;2024-03-17T07:37:39;102252.72;;;26.63;86.43
65190;BME280;51777;53.570;9.984;2024-03-17T07:40:05;102254.44;;;27.08;86.13
65190;BME280;51777;53.570;9.984;2024-03-17T07:42:32;102253.28;;;25.25;86.30
65190;BME280;51777;53.570;9.984;2024-03-17T07:44:58;102259.75;;;26.83;87.56
65190;BME280;51777;53.570;9.984;2024-03-17T07:47:23;102266.75;;;26.46;84.48
65190;BME280;51777;53.570;9.984;2024-03-17T07:49:49;102266.84;;;27.75;85.88
65190;BME280;51777;53.570;9.984;2024-03-17T07:52:14;102275.47;;;27.89;84.80
65190;BME280;51777;53.570;9.984;2024-03-17T07:54:40;102273.88;;;27.70;84.54
65190;BME280;51777;53.570;9.984;2024-03-17T07:57:05;102277.59;;;27.99;84.60
65190;BME280;51777;53.570;9.984;2024-03-17T07:59:31;102268.84;;;26.30;84.23
65190;BME280;51777;53.570;9.984;2024-03-17T08:01:56;102276.22;;;26.22;85.37
65190;BME280;51777;53.570;9.984;2024-03-17T08:04:22;102284.25;;;27.10;82.10
65190;BME280;51777;53.570;9.984;2024-03-17T08:06:47;102278.28;;;27.58;82.75
65190;BME280;51777;53.570;9.984;2024-03-17T08:09:13;102270.16;;;27.89;82.52
65190;BME280;51777;53.570;9.984;2024-03-17T08:11:39;102274.47;;;28.50;81.36
65190;BME280;51777;53.570;9.984;2024-03-17T08:14:11;102280.91;;;28.13;79.30
65190;BME280;51777;53.570;9.984;2024-03-17T08:16:36;102277.63;;;28.71;80.12
65190;BME280;51777;53.570;9.984;2024-03-17T08:19:02;102277.91;;;29.63;78.42
65190;BME280;51777;53.570;9.984;2024-03-17T08:21:28;102269.97;;;29.16;79.79
65190;BME280;51777;53.570;9.984;2024-03-17T08:23:55;102275.25;;;30.31;78.93
65190;BME280;51777;53.570;9.984;2024-03-17T08:26:20;102272.50;;;30.26;78.38
65190;BME280;51777;53.570;9.984;2024-03-17T08:28:45;102252.50;;;26.65;82.03
65190;BME280;51777;53.570;9.984;2024-03-17T08:31:11;102248.84;;;25.05;81.39
65190;BME280;51777;53.570;9.984;2024-03-17T08:33:37;102253.63;;;24.55;82.60
65190;BME280;51777;53.570;9.984;2024-03-17T08:36:04;102252.66;;;26.07;82.29
65190;BME280;51777;53.570;9.984;2024-03-17T08:38:31;102256.72;;;26.03;82.18
65190;BME280;51777;53.570;9.984;2024-03-17T08:41:01;102265.41;;;26.86;80.62
65190;BME280;51777;53.570;9.984;2024-03-17T08:43:27;102261.00;;;24.73;80.92
65190;BME280;51777;53.570;9.984;2024-03-17T08:46:00;102245.25;;;22.72;83.25
65190;BME280;51777;53.570;9.984;2024-03-17T08:48:29;102259.56;;;26.78;80.94
65190;BME280;51777;53.570;9.984;2024-03-17T08:50:56;102275.75;;;27.99;78.26
65190;BME280;51777;53.570;9.984;2024-03-17T08:53:22;102270.13;;;28.07;78.32
65190;BME280;51777;53.570;9.984;2024-03-17T08:55:48;102251.97;;;26.18;80.39
65190;BME280;51777;53.570;9.984;2024-03-17T08:58:13;102267.53;;;27.28;78.66
65190;BME280;51777;53.570;9.984;2024-03-17T09:00:39;102263.28;;;27.02;78.50
65190;BME280;51777;53.570;9.984;2024-03-17T09:03:06;102270.06;;;28.98;76.70
65190;BME280;51777;53.570;9.984;2024-03-17T09:05:32;102270.28;;;30.06;76.78
65190;BME280;51777;53.570;9.984;2024-03-17T09:08:36;102277.97;;;30.20;74.77
65190;BME280;51777;53.570;9.984;2024-03-17T09:11:11;102251.50;;;27.16;77.25
65190;BME280;51777;53.570;9.984;2024-03-17T09:13:37;102242.31;;;24.14;80.58
65190;BME280;51777;53.570;9.984;2024-03-17T09:16:02;102230.38;;;22.86;82.21
65190;BME280;51777;53.570;9.984;2024-03-17T09:18:29;102250.94;;;27.32;79.87
65190;BME280;51777;53.570;9.984;2024-03-17T09:21:05;102268.19;;;28.98;77.59
65190;BME280;51777;53.570;9.984;2024-03-17T09:23:33;102271.78;;;30.31;76.96
65190;BME280;51777;53.570;9.984;2024-03-17T09:26:08;102273.09;;;31.12;75.58
65190;BME280;51777;53.570;9.984;2024-03-17T09:28:34;102270.50;;;31.56;75.93
65190;BME280;51777;53.570;9.984;2024-03-17T09:31:00;102274.47;;;31.97;75.35
65190;BME280;51777;53.570;9.984;2024-03-17T09:33:34;102277.13;;;32.24;73.99
65190;BME280;51777;53.570;9.984;2024-03-17T09:36:06;102284.13;;;32.25;74.70
65190;BME280;51777;53.570;9.984;2024-03-17T09:38:32;102268.59;;;30.17;76.13
65190;BME280;51777;53.570;9.984;2024-03-17T09:40:58;102262.16;;;27.89;77.09
65190;BME280;51777;53.570;9.984;2024-03-17T09:43:26;102247.91;;;25.58;80.03
65190;BME280;51777;53.570;9.984;2024-03-17T09:45:52;102260.72;;;27.75;78.74
65190;BME280;51777;53.570;9.984;2024-03-17T09:48:21;102260.88;;;28.40;78.08
65190;BME280;51777;53.570;9.984;2024-03-17T09:53:16;102257.97;;;26.00;78.35
65190;BME280;51777;53.570;9.984;2024-03-17T09:55:43;102238.69;;;22.25;82.18
65190;BME280;51777;53.570;9.984;2024-03-17T09:58:16;102239.19;;;23.90;81.93
65190;BME280;51777;53.570;9.984;2024-03-17T10:00:43;102237.56;;;23.89;82.00
65190;BME280;51777;53.570;9.984;2024-03-17T10:03:08;102244.25;;;22.01;83.25
65190;BME280;51777;53.570;9.984;2024-03-17T10:05:34;102232.66;;;20.76;83.99
65190;BME280;51777;53.570;9.984;2024-03-17T10:08:01;102237.78;;;22.04;83.12
65190;BME280;51777;53.570;9.984;2024-03-17T10:10:28;102239.81;;;22.02;82.67
65190;BME280;51777;53.570;9.984;2024-03-17T10:12:56;102245.16;;;20.97;83.87
65190;BME280;51777;53.570;9.984;2024-03-17T10:15:22;102235.97;;;22.04;83.67
65190;BME280;51777;53.570;9.984;2024-03-17T10:17:49;102249.91;;;23.48;81.94
65190;BME280;51777;53.570;9.984;2024-03-17T10:20:16;102240.50;;;22.82;81.52
65190;BME280;51777;53.570;9.984;2024-03-17T10:23:04;102231.69;;;21.15;83.42
65190;BME280;51777;53.570;9.984;2024-03-17T10:25:32;102234.13;;;23.26;83.10
65190;BME280;51777;53.570;9.984;2024-03-17T10:27:59;102244.84;;;23.53;81.90
65190;BME280;51777;53.570;9.984;2024-03-17T10:31:00;102235.22;;;22.82;83.83
65190;BME280;51777;53.570;9.984;2024-03-17T10:33:26;102233.28;;;21.83;85.27
65190;BME280;51777;53.570;9.984;2024-03-17T10:35:59;102228.97;;;19.61;87.92
65190;BME280;51777;53.570;9.984;2024-03-17T10:38:33;102222.69;;;18.24;88.60
65190;BME280;51777;53.570;9.984;2024-03-17T10:41:00;102220.09;;;19.46;88.07
65190;BME280;51777;53.570;9.984;2024-03-17T10:43:26;102219.94;;;18.41;87.92
65190;BME280;51777;53.570;9.984;2024-03-17T10:45:52;102217.78;;;18.29;87.95
65190;BME280;51777;53.570;9.984;2024-03-17T10:48:20;102213.22;;;17.11;89.26
65190;BME280;51777;53.570;9.984;2024-03-17T10:50:49;102212.47;;;18.95;88.77
65190;BME280;51777;53.570;9.984;2024-03-17T10:53:19;102218.81;;;19.42;88.46
65190;BME280;51777;53.570;9.984;2024-03-17T10:56:13;102211.63;;;18.62;88.75
65190;BME280;51777;53.570;9.984;2024-03-17T10:58:44;102211.81;;;19.01;88.36
65190;BME280;51777;53.570;9.984;2024-03-17T11:01:15;102218.84;;;19.25;88.67
65190;BME280;51777;53.570;9.984;2024-03-17T11:03:41;102203.00;;;16.01;92.40
65190;BME280;51777;53.570;9.984;2024-03-17T11:06:09;102217.53;;;19.05;89.94
65190;BME280;51777;53.570;9.984;2024-03-17T11:08:36;102215.59;;;19.87;87.25
65190;BME280;51777;53.570;9.984;2024-03-17T11:11:02;102222.22;;;20.06;87.35
65190;BME280;51777;53.570;9.984;2024-03-17T11:13:31;102206.75;;;19.00;89.01
65190;BME280;51777;53.570;9.984;2024-03-17T11:15:58;102222.56;;;20.65;87.64
65190;BME280;51777;53.570;9.984;2024-03-17T11:23:58;102221.41;;;19.66;87.64
65190;BME280;51777;53.570;9.984;2024-03-17T11:27:42;102229.22;;;20.98;85.66
65190;BME280;51777;53.570;9.984;2024-03-17T11:36:38;102199.69;;;17.67;89.87
65190;BME280;51777;53.570;9.984;2024-03-17T11:39:07;102197.50;;;16.85;91.05
65190;BME280;51777;53.570;9.984;2024-03-17T11:41:51;102189.88;;;16.73;91.85
65190;BME280;51777;53.570;9.984;2024-03-17T11:46:53;102207.28;;;19.75;88.02
65190;BME280;51777;53.570;9.984;2024-03-17T11:49:24;102202.50;;;18.99;87.77
65190;BME280;51777;53.570;9.984;2024-03-17T11:51:55;102191.66;;;17.95;89.38
65190;BME280;51777;53.570;9.984;2024-03-17T11:54:25;102183.88;;;17.17;90.59
65190;BME280;51777;53.570;9.984;2024-03-17T11:56:54;102173.59;;;16.26;92.16
65190;BME280;51777;53.570;9.984;2024-03-17T11:59:31;102171.34;;;17.54;90.27
65190;BME280;51777;53.570;9.984;2024-03-17T12:04:41;102175.38;;;17.15;90.98
65190;BME280;51777;53.570;9.984;2024-03-17T12:07:12;102163.16;;;17.23;90.52
65190;BME280;51777;53.570;9.984;2024-03-17T12:09:38;102171.00;;;17.49;90.09
65190;BME280;51777;53.570;9.984;2024-03-17T12:12:09;102176.59;;;18.80;90.29
65190;BME280;51777;53.570;9.984;2024-03-17T12:14:36;102175.66;;;18.06;89.07
65190;BME280;51777;53.570;9.984;2024-03-17T12:17:19;102174.56;;;19.30;88.25
65190;BME280;51777;53.570;9.984;2024-03-17T12:19:47;102193.47;;;20.43;87.75
65190;BME280;51777;53.570;9.984;2024-03-17T12:22:20;102171.94;;;19.39;87.46
65190;BME280;51777;53.570;9.984;2024-03-17T12:24:48;102181.47;;;18.58;88.24
65190;BME280;51777;53.570;9.984;2024-03-17T12:27:20;102180.78;;;18.32;88.10
65190;BME280;51777;53.570;9.984;2024-03-17T12:29:47;102182.00;;;18.70;87.36
65190;BME280;51777;53.570;9.984;2024-03-17T12:32:22;102180.97;;;19.83;87.62
65190;BME280;51777;53.570;9.984;2024-03-17T12:34:55;102178.59;;;21.34;86.23
65190;BME280;51777;53.570;9.984;2024-03-17T12:37:26;102182.72;;;22.23;85.30
65190;BME280;51777;53.570;9.984;2024-03-17T12:40:00;102179.81;;;22.18;83.80
65190;BME280;51777;53.570;9.984;2024-03-17T12:42:29;102181.72;;;22.24;85.06
65190;BME280;51777;53.570;9.984;2024-03-17T12:44:59;102176.16;;;21.98;84.74
65190;BME280;51777;53.570;9.984;2024-03-17T12:48:00;102160.03;;;19.75;86.43
65190;BME280;51777;53.570;9.984;2024-03-17T12:50:39;102157.28;;;21.06;84.92
65190;BME280;51777;53.570;9.984;2024-03-17T12:57:20;102145.44;;;21.39;86.04
65190;BME280;51777;53.570;9.984;2024-03-17T13:04:04;102156.78;;;25.01;82.79
65190;BME280;51777;53.570;9.984;2024-03-17T13:10:42;102143.63;;;22.48;83.11
65190;BME280;51777;53.570;9.984;2024-03-17T13:13:10;102131.72;;;20.16;85.74
65190;BME280;51777;53.570;9.984;2024-03-17T13:15:39;102128.25;;;19.54;86.44
65190;BME280;51777;53.570;9.984;2024-03-17T13:18:05;102126.50;;;18.66;87.93
65190;BME280;51777;53.570;9.984;2024-03-17T13:20:31;102119.31;;;20.56;87.10
65190;BME280;51777;53.570;9.984;2024-03-17T13:23:00;102131.03;;;22.22;84.91
65190;BME280;51777;53.570;9.984;2024-03-17T13:25:29;102127.91;;;22.83;84.83
65190;BME280;51777;53.570;9.984;2024-03-17T13:28:00;102125.09;;;22.63;83.68